createdAt,value
2019-04-07T00:02:05.437Z,6.00
2019-04-07T00:04:35.057Z,6.00
2019-04-07T00:07:05.284Z,6.00
2019-04-07T00:09:35.578Z,5.80
2019-04-07T00:12:06.079Z,5.80
2019-04-07T00:14:36.071Z,5.80
2019-04-07T00:17:05.815Z,5.80
2019-04-07T00:19:35.443Z,5.60
2019-04-07T00:22:05.166Z,5.50
2019-04-07T00:24:35.217Z,5.50
2019-04-07T00:27:05.555Z,5.40
2019-04-07T00:29:35.517Z,5.50
2019-04-07T00:32:05.197Z,5.60
2019-04-07T00:34:34.881Z,5.40
2019-04-07T00:37:06.029Z,5.20
2019-04-07T00:39:36.185Z,5.40
2019-04-07T00:42:05.973Z,5.50
2019-04-07T00:44:35.600Z,5.60
2019-04-07T00:47:05.280Z,5.50
2019-04-07T00:49:34.916Z,5.10
2019-04-07T00:52:06.304Z,5.30
2019-04-07T00:54:36.001Z,5.50
2019-04-07T00:57:05.654Z,5.60
2019-04-07T00:59:35.290Z,5.70
2019-04-07T01:02:05.797Z,5.70
2019-04-07T01:04:35.519Z,5.60
2019-04-07T01:07:05.331Z,5.50
2019-04-07T01:09:35.288Z,5.40
2019-04-07T01:12:05.313Z,5.30
2019-04-07T01:14:34.954Z,5.20
2019-04-07T01:17:04.841Z,5.20
2019-04-07T01:19:35.350Z,5.10
2019-04-07T01:22:05.449Z,5.10
2019-04-07T01:24:35.261Z,4.90
2019-04-07T01:27:05.489Z,4.90
2019-04-07T01:29:35.415Z,4.90
2019-04-07T01:32:06.006Z,5.10
2019-04-07T01:34:36.154Z,5.10
2019-04-07T01:37:05.884Z,5.00
2019-04-07T01:39:35.590Z,5.10
2019-04-07T01:42:06.982Z,5.00
2019-04-07T01:44:44.555Z,4.90
2019-04-07T01:47:16.815Z,4.80
2019-04-07T01:49:51.182Z,4.80
2019-04-07T01:52:22.705Z,4.80
2019-04-07T01:54:53.970Z,4.80
2019-04-07T01:57:31.050Z,5.00
2019-04-07T02:00:03.040Z,4.90
2019-04-07T02:02:37.158Z,4.70
2019-04-07T02:05:27.727Z,4.60
2019-04-07T02:08:14.520Z,4.60
2019-04-07T02:10:51.839Z,4.60
2019-04-07T02:13:39.326Z,4.70
2019-04-07T02:16:26.984Z,4.70
2019-04-07T02:19:15.091Z,4.50
2019-04-07T02:21:49.398Z,4.60
2019-04-07T02:24:37.223Z,4.50
2019-04-07T02:27:26.897Z,4.50
2019-04-07T02:29:58.868Z,4.80
2019-04-07T02:32:35.787Z,4.80
2019-04-07T02:35:25.859Z,4.70
2019-04-07T02:37:57.270Z,4.60
2019-04-07T02:40:28.599Z,4.60
2019-04-07T02:43:15.873Z,4.50
2019-04-07T02:45:50.607Z,4.70
2019-04-07T02:48:39.593Z,4.70
2019-04-07T02:51:27.301Z,4.80
2019-04-07T02:53:59.373Z,4.70
2019-04-07T02:56:30.969Z,4.60
2019-04-07T02:59:02.238Z,4.50
2019-04-07T03:01:33.648Z,4.50
2019-04-07T03:04:07.681Z,4.50
2019-04-07T03:06:52.270Z,4.40
2019-04-07T03:09:24.115Z,4.40
2019-04-07T03:12:12.433Z,4.40
2019-04-07T03:14:43.715Z,4.40
2019-04-07T03:17:15.835Z,4.40
2019-04-07T03:19:56.282Z,4.30
2019-04-07T03:22:45.847Z,4.50
2019-04-07T03:25:17.674Z,4.40
2019-04-07T03:27:51.374Z,4.40
2019-04-07T03:30:25.142Z,4.50
2019-04-07T03:32:57.612Z,4.50
2019-04-07T03:35:38.446Z,4.40
2019-04-07T03:38:27.418Z,4.40
2019-04-07T03:41:01.991Z,4.50
2019-04-07T03:43:40.031Z,4.50
2019-04-07T03:46:12.119Z,4.30
2019-04-07T03:48:43.519Z,4.30
2019-04-07T03:51:17.401Z,4.10
2019-04-07T03:54:03.914Z,4.20
2019-04-07T03:56:35.814Z,4.20
2019-04-07T03:59:20.030Z,4.40
2019-04-07T04:02:00.718Z,4.30
2019-04-07T04:04:32.309Z,4.40
2019-04-07T04:07:21.415Z,4.30
2019-04-07T04:09:42.837Z,4.30
2019-04-07T04:12:26.317Z,4.30
2019-04-07T04:15:01.759Z,4.30
2019-04-07T04:17:32.613Z,4.40
2019-04-07T04:20:02.715Z,4.30
2019-04-07T04:22:32.491Z,4.40
2019-04-07T04:25:02.915Z,4.30
2019-04-07T04:27:33.331Z,4.20
2019-04-07T04:30:03.269Z,4.20
2019-04-07T04:32:32.985Z,4.20
2019-04-07T04:35:03.227Z,4.30
2019-04-07T04:37:41.918Z,4.40
2019-04-07T04:40:07.166Z,4.50
2019-04-07T04:42:37.582Z,4.50
2019-04-07T04:45:08.398Z,4.30
2019-04-07T04:47:39.249Z,4.30
2019-04-07T04:50:09.952Z,4.40
2019-04-07T04:52:40.559Z,4.40
2019-04-07T04:55:11.320Z,4.40
2019-04-07T04:57:41.086Z,4.40
2019-04-07T05:00:10.895Z,4.40
2019-04-07T05:02:41.138Z,4.40
2019-04-07T05:05:11.053Z,4.30
2019-04-07T05:07:53.838Z,4.20
2019-04-07T05:10:12.316Z,4.20
2019-04-07T05:12:42.041Z,4.30
2019-04-07T05:15:12.058Z,4.40
2019-04-07T05:17:42.078Z,4.40
2019-04-07T05:20:12.388Z,4.50
2019-04-07T05:22:42.235Z,4.60
2019-04-07T05:25:12.115Z,4.70
2019-04-07T05:27:41.760Z,4.60
2019-04-07T05:30:11.523Z,4.60
2019-04-07T05:32:41.747Z,4.70
2019-04-07T05:35:13.187Z,4.80
2019-04-07T05:37:43.351Z,4.90
2019-04-07T05:40:13.312Z,5.00
2019-04-07T05:42:43.545Z,5.00
2019-04-07T05:45:13.520Z,5.00
2019-04-07T05:47:47.328Z,4.90
2019-04-07T05:53:13.461Z,5.20
2019-04-07T05:55:41.226Z,5.30
2019-04-07T05:58:11.635Z,5.30
2019-04-07T06:00:45.882Z,5.20
2019-04-07T06:03:13.426Z,5.30
2019-04-07T06:05:44.625Z,5.50
2019-04-07T06:08:25.970Z,5.60
2019-04-07T06:10:45.903Z,5.80
2019-04-07T06:13:15.788Z,5.80
2019-04-07T06:15:45.742Z,5.80
2019-04-07T06:18:15.497Z,5.90
2019-04-07T06:20:45.787Z,6.10
2019-04-07T06:23:16.989Z,6.20
2019-04-07T06:25:47.353Z,6.30
2019-04-07T06:28:19.013Z,6.30
2019-04-07T06:30:48.382Z,6.20
2019-04-07T06:33:18.101Z,6.40
2019-04-07T06:35:47.933Z,6.50
2019-04-07T06:38:17.785Z,6.30
2019-04-07T06:40:47.977Z,6.60
2019-04-07T06:43:18.636Z,6.70
2019-04-07T06:45:54.926Z,6.60
2019-04-07T06:48:24.438Z,6.50
2019-04-07T06:51:02.820Z,6.70
2019-04-07T06:53:51.436Z,6.80
2019-04-07T06:56:23.200Z,6.90
2019-04-07T06:59:13.832Z,7.10
2019-04-07T07:01:48.189Z,7.10
2019-04-07T07:04:32.268Z,7.20
2019-04-07T07:07:13.037Z,7.30
2019-04-07T07:09:44.414Z,7.50
2019-04-07T07:12:35.663Z,7.50
2019-04-07T07:15:02.550Z,7.70
2019-04-07T07:17:50.697Z,7.90
2019-04-07T07:20:27.599Z,8.20
2019-04-07T07:23:00.112Z,8.50
2019-04-07T07:25:30.426Z,8.60
2019-04-07T07:28:00.061Z,8.40
2019-04-07T07:30:29.988Z,8.50
2019-04-07T07:32:59.712Z,8.70
2019-04-07T07:35:29.717Z,8.90
2019-04-07T07:37:59.769Z,9.20
2019-04-07T07:40:29.906Z,9.60
2019-04-07T07:42:59.608Z,9.90
2019-04-07T07:45:29.237Z,9.90
2019-04-07T07:47:58.891Z,10.00
2019-04-07T07:50:28.529Z,10.20
2019-04-07T07:52:58.286Z,10.30
2019-04-07T07:55:47.668Z,10.20
2019-04-07T07:58:17.317Z,10.30
2019-04-07T08:00:47.572Z,10.30
2019-04-07T08:03:20.867Z,10.50
2019-04-07T08:05:48.726Z,10.40
2019-04-07T08:08:18.784Z,10.50
2019-04-07T08:10:48.542Z,10.40
2019-04-07T08:13:18.995Z,10.50
2019-04-07T08:15:49.337Z,10.50
2019-04-07T08:18:20.719Z,10.60
2019-04-07T08:20:51.184Z,10.60
2019-04-07T08:23:21.033Z,10.50
2019-04-07T08:25:52.935Z,10.60
2019-04-07T08:28:22.105Z,10.70
2019-04-07T08:30:51.737Z,10.70
2019-04-07T08:33:21.393Z,10.70
2019-04-07T08:35:51.492Z,10.70
2019-04-07T08:38:25.597Z,10.70
2019-04-07T08:40:54.963Z,10.70
2019-04-07T08:43:24.993Z,10.70
2019-04-07T08:45:55.292Z,10.70
2019-04-07T08:48:25.622Z,10.70
2019-04-07T08:50:57.249Z,10.70
2019-04-07T08:53:26.609Z,10.80
2019-04-07T08:55:56.968Z,10.70
2019-04-07T08:58:29.677Z,10.70
2019-04-07T09:00:58.534Z,10.70
2019-04-07T09:03:28.293Z,10.80
2019-04-07T09:05:58.523Z,10.80
2019-04-07T09:08:28.276Z,10.90
2019-04-07T09:10:59.542Z,11.00
2019-04-07T09:13:31.651Z,11.20
2019-04-07T09:16:02.486Z,11.30
2019-04-07T09:18:33.797Z,11.40
2019-04-07T09:21:33.652Z,11.60
2019-04-07T09:24:11.442Z,11.70
2019-04-07T09:27:01.120Z,12.00
2019-04-07T09:29:49.123Z,12.00
2019-04-07T09:32:23.733Z,12.30
2019-04-07T09:35:11.326Z,12.70
2019-04-07T09:37:43.309Z,13.40
2019-04-07T09:40:21.467Z,14.10
2019-04-07T09:43:09.844Z,14.80
2019-04-07T09:45:58.356Z,15.40
2019-04-07T09:48:33.404Z,15.70
2019-04-07T09:51:21.858Z,15.80
2019-04-07T09:53:53.377Z,16.10
2019-04-07T09:56:31.422Z,16.20
2019-04-07T09:59:03.524Z,16.30
2019-04-07T10:01:47.404Z,16.40
2019-04-07T10:04:31.094Z,16.20
2019-04-07T10:07:16.166Z,15.80
2019-04-07T10:09:47.352Z,15.70
2019-04-07T10:12:34.760Z,15.60
2019-04-07T10:15:08.400Z,15.40
2019-04-07T10:17:43.655Z,15.80
2019-04-07T10:20:15.518Z,15.90
2019-04-07T10:22:49.432Z,16.00
2019-04-07T10:25:21.103Z,16.10
2019-04-07T10:28:11.042Z,15.90
2019-04-07T10:30:48.400Z,16.20
2019-04-07T10:33:25.972Z,16.10
2019-04-07T10:36:12.265Z,16.00
2019-04-07T10:38:52.686Z,15.80
2019-04-07T10:41:40.348Z,16.10
2019-04-07T10:44:23.854Z,16.30
2019-04-07T10:47:01.551Z,17.00
2019-04-07T10:49:33.042Z,17.00
2019-04-07T10:52:07.249Z,16.80
2019-04-07T10:54:39.172Z,17.10
2019-04-07T10:57:13.370Z,16.90
2019-04-07T10:59:45.297Z,16.80
2019-04-07T11:02:16.962Z,16.20
2019-04-07T11:04:48.438Z,16.10
2019-04-07T11:07:26.639Z,16.40
2019-04-07T11:09:58.906Z,16.60
2019-04-07T11:12:30.467Z,16.60
2019-04-07T11:15:10.726Z,17.10
2019-04-07T11:17:51.543Z,17.50
2019-04-07T11:20:34.832Z,17.80
2019-04-07T11:23:06.234Z,17.60
2019-04-07T11:25:54.769Z,18.10
2019-04-07T11:28:31.937Z,18.30
2019-04-07T11:31:03.864Z,18.40
2019-04-07T11:33:38.071Z,17.90
2019-04-07T11:36:09.683Z,17.80
2019-04-07T11:38:50.546Z,18.10
2019-04-07T11:41:39.175Z,18.30
2019-04-07T11:44:13.846Z,17.90
2019-04-07T11:46:54.221Z,17.70
2019-04-07T11:49:25.843Z,17.60
2019-04-07T11:52:16.451Z,17.70
2019-04-07T11:54:47.963Z,18.00
2019-04-07T11:57:20.352Z,17.90
2019-04-07T11:59:57.598Z,17.50
2019-04-07T12:02:34.816Z,17.30
2019-04-07T12:05:17.598Z,17.50
2019-04-07T12:08:06.091Z,17.50
2019-04-07T12:10:37.778Z,17.40
2019-04-07T12:13:27.331Z,17.30
2019-04-07T12:15:59.362Z,17.30
2019-04-07T12:18:51.361Z,17.20
2019-04-07T12:21:26.743Z,16.80
2019-04-07T12:24:01.617Z,16.80
2019-04-07T12:26:48.774Z,16.70
2019-04-07T12:29:20.078Z,16.80
2019-04-07T12:31:52.093Z,16.80
2019-04-07T12:34:23.552Z,16.60
2019-04-07T12:37:07.896Z,16.80
2019-04-07T12:39:39.284Z,17.00
2019-04-07T12:42:11.319Z,17.10
2019-04-07T12:44:58.245Z,17.10
2019-04-07T12:47:30.065Z,17.20
2019-04-07T12:50:04.361Z,17.50
2019-04-07T12:53:05.924Z,17.90
2019-04-07T12:55:56.947Z,17.90
2019-04-07T12:58:43.998Z,18.40
2019-04-07T13:01:19.249Z,18.40
2019-04-07T13:03:51.218Z,18.40
2019-04-07T13:06:42.230Z,18.10
2019-04-07T13:09:17.859Z,18.00
2019-04-07T13:11:54.837Z,17.90
2019-04-07T13:14:41.545Z,18.30
2019-04-07T13:17:34.192Z,18.90
2019-04-07T13:20:17.982Z,18.80
2019-04-07T13:22:57.028Z,18.90
2019-04-07T13:25:32.330Z,19.40
2019-04-07T13:28:15.182Z,19.30
2019-04-07T13:30:53.037Z,19.60
2019-04-07T13:33:37.155Z,19.70
2019-04-07T13:36:26.769Z,19.80
2019-04-07T13:38:58.845Z,20.00
2019-04-07T13:41:38.605Z,19.40
2019-04-07T13:44:07.652Z,19.10
2019-04-07T13:46:42.197Z,19.10
2019-04-07T13:49:32.191Z,18.60
2019-04-07T13:52:09.621Z,18.50
2019-04-07T13:54:52.717Z,18.50
2019-04-07T13:57:42.853Z,18.80
2019-04-07T14:00:31.696Z,19.20
2019-04-07T14:03:03.015Z,19.20
2019-04-07T14:05:39.352Z,19.00
2019-04-07T14:08:26.348Z,19.00
2019-04-07T14:11:14.406Z,18.90
2019-04-07T14:14:01.310Z,18.70
2019-04-07T14:16:33.409Z,18.40
2019-04-07T14:19:11.306Z,18.00
2019-04-07T14:21:55.687Z,18.00
2019-04-07T14:24:33.121Z,17.90
2019-04-07T14:27:19.691Z,18.00
2019-04-07T14:30:07.832Z,17.90
2019-04-07T14:32:45.332Z,17.90
2019-04-07T14:35:16.585Z,17.80
2019-04-07T14:37:51.263Z,18.00
2019-04-07T14:40:25.185Z,17.80
2019-04-07T14:42:55.562Z,17.80
2019-04-07T14:45:27.394Z,17.60
2019-04-07T14:48:16.151Z,17.70
2019-04-07T14:50:50.833Z,17.70
2019-04-07T14:53:22.203Z,17.30
2019-04-07T14:55:53.568Z,17.30
2019-04-07T14:58:39.968Z,17.20
2019-04-07T15:01:14.190Z,17.10
2019-04-07T15:03:44.637Z,17.10
2019-04-07T15:06:15.334Z,16.80
2019-04-07T15:08:47.476Z,16.80
2019-04-07T15:11:23.757Z,16.70
2019-04-07T15:13:56.977Z,16.60
2019-04-07T15:16:26.360Z,16.80
2019-04-07T15:18:56.683Z,17.00
2019-04-07T15:21:27.349Z,17.10
2019-04-07T15:23:57.296Z,16.90
2019-04-07T15:26:28.203Z,17.10
2019-04-07T15:28:59.050Z,17.00
2019-04-07T15:31:29.095Z,16.90
2019-04-07T15:34:00.749Z,16.80
2019-04-07T15:36:30.073Z,16.70
2019-04-07T15:38:59.754Z,16.40
2019-04-07T15:41:29.552Z,16.60
2019-04-07T15:43:59.283Z,16.70
2019-04-07T15:46:29.820Z,16.30
2019-04-07T15:48:59.494Z,16.20
2019-04-07T15:51:29.478Z,16.10
2019-04-07T15:53:59.438Z,16.00
2019-04-07T15:56:29.191Z,16.00
2019-04-07T15:59:00.744Z,16.10
2019-04-07T16:01:30.041Z,15.90
2019-04-07T16:03:59.752Z,15.80
2019-04-07T16:06:30.068Z,15.80
2019-04-07T16:09:01.079Z,15.80
2019-04-07T16:11:31.485Z,15.80
2019-04-07T16:14:01.645Z,15.70
2019-04-07T16:16:31.838Z,15.70
2019-04-07T16:19:01.528Z,15.50
2019-04-07T16:21:31.198Z,15.50
2019-04-07T16:24:00.993Z,16.00
2019-04-07T16:26:32.483Z,16.10
2019-04-07T16:29:02.833Z,16.10
2019-04-07T16:31:33.263Z,16.10
2019-04-07T16:34:05.656Z,16.20
2019-04-07T16:36:35.094Z,16.00
2019-04-07T16:39:09.312Z,16.00
2019-04-07T16:41:40.159Z,16.00
2019-04-07T16:44:10.687Z,16.00
2019-04-07T16:46:41.358Z,16.00
2019-04-07T16:49:13.365Z,16.00
2019-04-07T16:51:42.750Z,16.00
2019-04-07T16:54:13.239Z,15.90
2019-04-07T16:56:44.047Z,15.70
2019-04-07T16:59:13.868Z,15.30
2019-04-07T17:01:43.576Z,15.00
2019-04-07T17:04:13.463Z,15.00
2019-04-07T17:06:43.199Z,14.90
2019-04-07T17:09:16.510Z,14.80
2019-04-07T17:11:46.564Z,14.70
2019-04-07T17:14:16.409Z,14.70
2019-04-07T17:16:46.078Z,14.60
2019-04-07T17:19:16.268Z,14.50
2019-04-07T17:21:46.871Z,14.40
2019-04-07T17:24:17.396Z,14.30
2019-04-07T17:26:47.173Z,14.20
2019-04-07T17:29:19.100Z,14.10
2019-04-07T17:31:48.737Z,14.10
2019-04-07T17:34:18.562Z,14.00
2019-04-07T17:36:52.120Z,13.90
2019-04-07T17:39:24.725Z,13.90
2019-04-07T17:41:56.142Z,13.80
2019-04-07T17:44:36.381Z,13.70
2019-04-07T17:47:13.714Z,13.70
2019-04-07T17:49:56.631Z,13.60
2019-04-07T17:52:27.176Z,13.60
2019-04-07T17:55:17.563Z,13.60
2019-04-07T17:58:07.891Z,13.70
2019-04-07T18:00:50.616Z,13.90
2019-04-07T18:03:41.254Z,14.30
2019-04-07T18:06:16.067Z,14.50
2019-04-07T18:09:09.990Z,14.40
2019-04-07T18:12:00.917Z,14.30
2019-04-07T18:14:33.326Z,13.50
2019-04-07T18:17:08.553Z,13.30
2019-04-07T18:19:39.946Z,13.20
2019-04-07T18:22:22.154Z,13.20
2019-04-07T18:24:59.612Z,13.10
2019-04-07T18:27:29.512Z,13.00
2019-04-07T18:30:01.758Z,13.10
2019-04-07T18:32:34.087Z,13.00
2019-04-07T18:35:23.762Z,12.90
2019-04-07T18:38:13.373Z,12.90
2019-04-07T18:40:47.199Z,12.80
2019-04-07T18:43:35.619Z,12.70
2019-04-07T18:46:23.664Z,12.60
2019-04-07T18:49:01.786Z,12.50
2019-04-07T18:51:48.397Z,12.40
2019-04-07T18:54:34.312Z,12.50
2019-04-07T18:57:10.847Z,12.40
2019-04-07T18:59:44.391Z,12.40
2019-04-07T19:02:24.838Z,12.40
2019-04-07T19:05:13.215Z,12.40
2019-04-07T19:07:47.188Z,12.30
2019-04-07T19:10:29.148Z,12.20
2019-04-07T19:13:05.674Z,12.20
2019-04-07T19:15:36.482Z,12.20
2019-04-07T19:18:06.703Z,12.20
2019-04-07T19:20:53.554Z,12.20
2019-04-07T19:23:27.992Z,12.20
2019-04-07T19:26:18.083Z,12.20
2019-04-07T19:28:49.834Z,12.20
2019-04-07T19:31:23.987Z,12.10
2019-04-07T19:34:02.326Z,12.10
2019-04-07T19:36:34.848Z,12.10
2019-04-07T19:39:09.322Z,12.10
2019-04-07T19:41:43.281Z,12.10
2019-04-07T19:44:33.935Z,12.10
2019-04-07T19:46:59.672Z,12.00
2019-04-07T19:49:45.328Z,12.00
2019-04-07T19:52:27.512Z,12.00
2019-04-07T19:55:14.719Z,11.90
2019-04-07T19:57:48.728Z,11.90
2019-04-07T20:00:27.654Z,11.80
2019-04-07T20:03:15.749Z,11.80
2019-04-07T20:06:02.795Z,11.60
2019-04-07T20:08:46.165Z,11.50
2019-04-07T20:11:35.788Z,11.40
2019-04-07T20:14:14.393Z,11.50
2019-04-07T20:16:57.837Z,11.40
2019-04-07T20:19:47.547Z,11.40
2019-04-07T20:22:35.105Z,11.40
2019-04-07T20:25:24.616Z,11.30
2019-04-07T20:28:11.929Z,11.30
2019-04-07T20:30:45.572Z,11.40
2019-04-07T20:33:19.105Z,11.30
2019-04-07T20:36:02.482Z,11.30
2019-04-07T20:38:46.475Z,11.30
2019-04-07T20:41:17.954Z,11.20
2019-04-07T20:43:53.842Z,11.20
2019-04-07T20:46:31.589Z,11.10
2019-04-07T20:49:05.314Z,11.10
2019-04-07T20:51:38.641Z,11.10
2019-04-07T20:54:25.955Z,11.10
2019-04-07T20:56:57.547Z,11.10
2019-04-07T20:59:31.735Z,11.10
2019-04-07T21:02:20.812Z,11.10
2019-04-07T21:04:53.114Z,11.10
2019-04-07T21:07:24.854Z,11.00
2019-04-07T21:10:07.599Z,11.10
2019-04-07T21:12:37.818Z,11.10
2019-04-07T21:15:21.105Z,11.10
2019-04-07T21:17:44.998Z,11.00
2019-04-07T21:20:16.542Z,11.00
2019-04-07T21:23:00.654Z,11.00
2019-04-07T21:25:41.393Z,11.00
2019-04-07T21:28:12.923Z,10.90
2019-04-07T21:30:53.643Z,10.90
2019-04-07T21:33:25.958Z,10.90
2019-04-07T21:36:14.253Z,10.90
2019-04-07T21:38:58.285Z,11.00
2019-04-07T21:41:46.133Z,10.90
2019-04-07T21:44:33.687Z,10.90
2019-04-07T21:47:14.148Z,11.00
2019-04-07T21:50:05.316Z,10.90
2019-04-07T21:52:35.642Z,10.80
2019-04-07T21:55:11.517Z,10.90
2019-04-07T21:57:50.759Z,10.70
2019-04-07T22:00:17.655Z,10.80
2019-04-07T22:02:51.973Z,10.70
2019-04-07T22:05:39.500Z,10.70
2019-04-07T22:08:15.641Z,10.70
2019-04-07T22:10:42.782Z,10.60
2019-04-07T22:13:12.566Z,10.60
2019-04-07T22:15:49.533Z,10.60
2019-04-07T22:18:14.969Z,10.50
2019-04-07T22:20:45.357Z,10.50
2019-04-07T22:23:15.022Z,10.50
2019-04-07T22:25:50.837Z,10.50
2019-04-07T22:28:20.866Z,10.40
2019-04-07T22:30:52.808Z,10.40
2019-04-07T22:33:25.221Z,10.50
2019-04-07T22:35:53.777Z,10.50
2019-04-07T22:38:23.918Z,10.50
2019-04-07T22:40:54.333Z,10.50
2019-04-07T22:43:24.874Z,10.50
2019-04-07T22:46:07.235Z,10.40
2019-04-07T22:48:27.874Z,10.40
2019-04-07T22:50:57.514Z,10.20
2019-04-07T22:53:39.587Z,10.20
2019-04-07T22:56:09.230Z,10.20
2019-04-07T22:58:38.851Z,10.30
2019-04-07T23:01:09.022Z,10.30
2019-04-07T23:03:39.103Z,10.30
2019-04-07T23:06:09.408Z,10.20
2019-04-07T23:08:39.131Z,10.30
2019-04-07T23:11:08.841Z,10.20
2019-04-07T23:13:38.517Z,10.20
2019-04-07T23:16:13.506Z,10.10
2019-04-07T23:18:40.215Z,10.10
2019-04-07T23:21:09.866Z,10.10
2019-04-07T23:23:39.864Z,10.10
2019-04-07T23:26:09.570Z,10.20
2019-04-07T23:28:40.185Z,10.20
2019-04-07T23:31:10.061Z,10.20
2019-04-07T23:33:39.713Z,10.10
2019-04-07T23:36:09.488Z,10.00
2019-04-07T23:38:39.193Z,10.00
2019-04-07T23:41:09.630Z,10.00
2019-04-07T23:43:39.712Z,10.00
2019-04-07T23:46:19.888Z,10.00
2019-04-07T23:48:40.708Z,10.00
2019-04-07T23:51:10.338Z,10.00
2019-04-07T23:54:11.400Z,9.90
2019-04-07T23:56:43.670Z,9.90
2019-04-07T23:59:14.654Z,9.90
